Bolton, Canada
Current Conditions -  °F | °C
As of 9:00 AM on Saturday 25 Oct 2014 (Local Time) from CYYZ Reporting Station
Broken Clouds Broken Clouds  
Wind Chill: 52°   Ceiling: 22000
Heat Index: 52°   Visibility: 10mi
Dew Point: 46°   Wind: 6mph
Humidity: 82%   Direction: 180°S
Pressure: 29.76"   Gusts: NA
Location:  43.88°N, 79.73°W
Report Text: CYYZ 251300Z 18005KT 10SM FEW045 SCT098 BKN220 11/08 A2976 RMK SC1AC3CI2 SLP080
Loading
Personal Weather Stations






























Interactive Weather Map
Tropical Storm Tracking
New forecast layout! Learn more

10-Day Weather Forecast

Advertisements
Track Severe Weather on mobile